createdAt,value
2022-09-17T00:01:24.903Z,17.28
2022-09-17T00:03:56.296Z,17.20
2022-09-17T00:06:25.344Z,17.42
2022-09-17T00:08:54.598Z,17.39
2022-09-17T00:11:25.266Z,17.41
2022-09-17T00:13:54.063Z,17.34
2022-09-17T00:16:28.563Z,17.44
2022-09-17T00:18:58.504Z,17.32
2022-09-17T00:21:26.771Z,17.26
2022-09-17T00:23:56.342Z,17.22
2022-09-17T00:26:24.303Z,17.16
2022-09-17T00:28:53.355Z,17.23
2022-09-17T00:31:21.914Z,17.04
2022-09-17T00:33:50.333Z,16.80
2022-09-17T00:36:20.642Z,17.05
2022-09-17T00:38:50.816Z,16.87
2022-09-17T00:41:19.161Z,17.06
2022-09-17T00:43:49.373Z,17.08
2022-09-17T00:46:31.603Z,17.27
2022-09-17T00:49:02.131Z,16.95
2022-09-17T00:51:35.842Z,17.02
2022-09-17T00:54:07.844Z,16.89
2022-09-17T00:56:38.151Z,17.01
2022-09-17T00:59:06.514Z,17.05
2022-09-17T01:01:34.395Z,17.12
2022-09-17T01:04:02.355Z,17.06
2022-09-17T01:06:36.121Z,16.89
2022-09-17T01:09:20.605Z,17.05
2022-09-17T01:12:01.555Z,16.90
2022-09-17T01:14:46.327Z,16.84
2022-09-17T01:17:21.323Z,16.86
2022-09-17T01:20:22.551Z,16.82
2022-09-17T01:23:06.969Z,16.69
2022-09-17T01:25:47.897Z,16.32
2022-09-17T01:28:35.356Z,16.98
2022-09-17T01:31:15.831Z,17.03
2022-09-17T01:33:54.515Z,16.39
2022-09-17T01:36:35.651Z,16.86
2022-09-17T01:39:10.216Z,16.90
2022-09-17T01:41:45.027Z,16.83
2022-09-17T01:44:18.748Z,16.65
2022-09-17T01:46:54.478Z,16.61
2022-09-17T01:49:25.477Z,16.65
2022-09-17T01:51:55.855Z,16.61
2022-09-17T01:54:26.862Z,16.23
2022-09-17T01:57:01.687Z,16.68
2022-09-17T01:59:34.723Z,16.84
2022-09-17T02:02:09.800Z,16.97
2022-09-17T02:04:43.724Z,16.85
2022-09-17T02:07:20.593Z,17.02
2022-09-17T02:09:54.585Z,16.87
2022-09-17T02:12:29.920Z,16.92
2022-09-17T02:15:02.420Z,16.87
2022-09-17T02:17:36.756Z,16.90
2022-09-17T02:20:05.517Z,16.74
2022-09-17T02:22:40.747Z,16.59
2022-09-17T02:25:14.367Z,16.59
2022-09-17T02:27:52.160Z,16.61
2022-09-17T02:30:20.115Z,16.49
2022-09-17T02:32:49.782Z,16.66
2022-09-17T02:35:17.904Z,16.77
2022-09-17T02:37:45.996Z,15.85
2022-09-17T02:40:16.405Z,16.92
2022-09-17T02:43:04.368Z,17.02
2022-09-17T02:45:46.232Z,17.17
2022-09-17T02:48:44.488Z,16.93
2022-09-17T02:51:34.323Z,16.96
2022-09-17T02:54:11.117Z,16.86
2022-09-17T02:56:48.564Z,16.75
2022-09-17T02:59:24.887Z,16.38
2022-09-17T03:02:01.307Z,16.67
2022-09-17T03:04:32.983Z,16.38
2022-09-17T03:07:06.038Z,16.28
2022-09-17T03:09:34.181Z,16.72
2022-09-17T03:12:02.619Z,16.73
2022-09-17T03:14:30.506Z,16.69
2022-09-17T03:16:58.513Z,16.66
2022-09-17T03:19:27.935Z,16.67
2022-09-17T03:21:57.211Z,16.77
2022-09-17T03:24:25.049Z,16.83
2022-09-17T03:26:52.934Z,17.05
2022-09-17T03:29:20.817Z,17.04
2022-09-17T03:31:48.759Z,17.04
2022-09-17T03:34:16.628Z,16.68
2022-09-17T03:36:44.594Z,16.76
2022-09-17T03:39:14.230Z,16.45
2022-09-17T03:41:42.081Z,16.65
2022-09-17T03:44:10.527Z,16.68
2022-09-17T03:46:39.008Z,16.21
2022-09-17T03:49:06.863Z,16.88
2022-09-17T03:51:34.694Z,16.82
2022-09-17T03:54:03.125Z,16.85
2022-09-17T03:56:32.314Z,16.85
2022-09-17T03:59:00.413Z,16.84
2022-09-17T04:01:29.431Z,17.00
2022-09-17T04:03:57.425Z,17.14
2022-09-17T04:06:25.408Z,17.10
2022-09-17T04:08:53.666Z,17.17
2022-09-17T04:11:21.659Z,17.30
2022-09-17T04:13:50.926Z,17.24
2022-09-17T04:16:18.836Z,17.20
2022-09-17T04:18:46.723Z,17.36
2022-09-17T04:21:14.582Z,17.48
2022-09-17T04:23:42.441Z,17.47
2022-09-17T04:26:10.731Z,17.65
2022-09-17T04:28:38.586Z,17.75
2022-09-17T04:31:08.019Z,17.65
2022-09-17T04:33:37.536Z,17.63
2022-09-17T04:36:05.582Z,17.79
2022-09-17T04:38:33.544Z,17.70
2022-09-17T04:41:01.570Z,17.45
2022-09-17T04:43:29.419Z,17.42
2022-09-17T04:45:57.265Z,17.48
2022-09-17T04:48:26.611Z,17.38
2022-09-17T04:50:54.440Z,17.31
2022-09-17T04:53:22.304Z,17.29
2022-09-17T04:55:50.142Z,17.15
2022-09-17T04:58:18.286Z,17.08
2022-09-17T05:00:46.183Z,16.95
2022-09-17T05:03:14.028Z,16.99
2022-09-17T05:05:43.301Z,16.99
2022-09-17T05:08:11.871Z,16.95
2022-09-17T05:10:39.741Z,17.00
2022-09-17T05:13:07.620Z,17.03
2022-09-17T05:15:35.545Z,17.16
2022-09-17T05:18:03.371Z,17.23
2022-09-17T05:20:31.217Z,17.28
2022-09-17T05:23:00.472Z,17.23
2022-09-17T05:25:28.325Z,17.21
2022-09-17T05:27:56.323Z,17.20
2022-09-17T05:30:24.806Z,17.19
2022-09-17T05:33:00.180Z,17.19
2022-09-17T05:35:28.240Z,17.23
2022-09-17T05:38:00.853Z,17.21
2022-09-17T05:40:29.416Z,17.22
2022-09-17T05:42:59.655Z,17.19
2022-09-17T05:45:27.511Z,17.31
2022-09-17T05:47:59.092Z,17.29
2022-09-17T05:50:28.272Z,17.23
2022-09-17T05:52:56.521Z,17.29
2022-09-17T05:55:27.817Z,17.39
2022-09-17T05:57:55.744Z,17.34
2022-09-17T06:00:23.614Z,17.14
2022-09-17T06:02:56.191Z,17.01
2022-09-17T06:05:24.052Z,17.02
2022-09-17T06:07:52.610Z,17.05
2022-09-17T06:10:20.491Z,17.16
2022-09-17T06:12:49.700Z,17.20
2022-09-17T06:15:17.649Z,17.23
2022-09-17T06:17:45.516Z,17.32
2022-09-17T06:20:13.358Z,17.31
2022-09-17T06:22:41.202Z,17.29
2022-09-17T06:25:09.568Z,17.29
2022-09-17T06:27:37.612Z,17.36
2022-09-17T06:30:08.559Z,17.44
2022-09-17T06:32:36.446Z,17.45
2022-09-17T06:35:07.069Z,17.40
2022-09-17T06:37:40.331Z,17.30
2022-09-17T06:40:10.027Z,17.31
2022-09-17T06:42:37.957Z,17.27
2022-09-17T06:45:10.186Z,17.27
2022-09-17T06:47:40.036Z,17.26
2022-09-17T06:50:08.432Z,17.31
2022-09-17T06:52:36.280Z,17.38
2022-09-17T06:55:05.446Z,17.47
2022-09-17T06:57:33.285Z,17.34
2022-09-17T07:00:01.125Z,17.32
2022-09-17T07:02:30.361Z,17.35
2022-09-17T07:04:58.254Z,17.38
2022-09-17T07:07:26.091Z,17.40
2022-09-17T07:09:54.232Z,17.55
2022-09-17T07:12:22.167Z,17.69
2022-09-17T07:14:50.360Z,17.70
2022-09-17T07:17:18.234Z,17.75
2022-09-17T07:19:47.453Z,17.72
2022-09-17T07:22:15.417Z,17.53
2022-09-17T07:24:43.294Z,17.68
2022-09-17T07:27:11.160Z,17.96
2022-09-17T07:29:41.390Z,18.23
2022-09-17T07:32:09.221Z,17.95
2022-09-17T07:34:37.743Z,18.36
2022-09-17T07:37:06.926Z,18.71
2022-09-17T07:39:34.955Z,19.18
2022-09-17T07:42:03.647Z,18.96
2022-09-17T07:44:31.621Z,19.64
2022-09-17T07:46:59.548Z,19.91
2022-09-17T07:49:27.585Z,20.50
2022-09-17T07:51:55.818Z,21.15
2022-09-17T07:54:25.218Z,21.16
2022-09-17T07:56:53.093Z,20.22
2022-09-17T07:59:21.661Z,20.05
2022-09-17T08:01:50.119Z,20.51
2022-09-17T08:04:18.104Z,20.61
2022-09-17T08:06:48.421Z,20.55
2022-09-17T08:09:17.781Z,20.73
2022-09-17T08:12:02.408Z,20.78
2022-09-17T08:14:30.307Z,21.17
2022-09-17T08:16:58.419Z,21.26
2022-09-17T08:19:26.248Z,21.45
2022-09-17T08:21:54.087Z,21.33
2022-09-17T08:24:22.029Z,21.41
2022-09-17T08:26:51.783Z,21.67
2022-09-17T08:29:19.621Z,22.38
2022-09-17T08:31:47.573Z,23.02
2022-09-17T08:34:15.499Z,23.75
2022-09-17T08:36:43.375Z,23.22
2022-09-17T08:39:12.288Z,22.97
2022-09-17T08:41:59.041Z,22.63
2022-09-17T08:44:31.689Z,22.31
2022-09-17T08:47:04.114Z,22.22
2022-09-17T08:49:36.034Z,21.92
2022-09-17T08:52:31.551Z,21.62
2022-09-17T08:55:06.436Z,21.87
2022-09-17T08:57:42.933Z,21.88
2022-09-17T09:00:14.968Z,21.74
2022-09-17T09:03:00.994Z,21.78
2022-09-17T09:05:33.806Z,21.72
2022-09-17T09:08:07.736Z,21.56
2022-09-17T09:10:46.002Z,21.42
2022-09-17T09:13:19.493Z,20.47
2022-09-17T09:15:53.140Z,21.32
2022-09-17T09:18:23.147Z,21.23
2022-09-17T09:20:53.661Z,21.21
2022-09-17T09:23:28.474Z,21.27
2022-09-17T09:26:03.199Z,21.03
2022-09-17T09:28:43.228Z,21.19
2022-09-17T09:31:22.376Z,21.08
2022-09-17T09:33:52.026Z,20.99
2022-09-17T09:36:21.908Z,20.87
2022-09-17T09:38:57.786Z,20.83
2022-09-17T09:41:32.794Z,20.80
2022-09-17T09:44:05.601Z,20.69
2022-09-17T09:46:55.613Z,20.56
2022-09-17T09:49:34.383Z,20.51
2022-09-17T09:52:15.556Z,20.20
2022-09-17T09:54:59.481Z,20.10
2022-09-17T09:57:39.137Z,19.81
2022-09-17T10:00:28.975Z,19.57
2022-09-17T10:03:03.089Z,19.15
2022-09-17T10:05:31.833Z,18.81
2022-09-17T10:08:00.141Z,18.45
2022-09-17T10:10:28.037Z,18.27
2022-09-17T10:13:08.574Z,18.39
2022-09-17T10:15:38.166Z,18.35
2022-09-17T10:18:14.449Z,18.12
2022-09-17T10:20:57.023Z,17.90
2022-09-17T10:23:27.500Z,17.76
2022-09-17T10:25:56.659Z,17.66
2022-09-17T10:28:34.047Z,17.68
2022-09-17T10:31:10.168Z,17.59
2022-09-17T10:33:41.925Z,17.52
2022-09-17T10:36:14.739Z,17.52
2022-09-17T10:38:44.073Z,17.53
2022-09-17T10:41:21.789Z,17.50
2022-09-17T10:43:50.826Z,17.39
2022-09-17T10:46:27.540Z,17.43
2022-09-17T10:49:08.213Z,17.39
2022-09-17T10:51:36.272Z,17.48
2022-09-17T10:54:16.374Z,17.57
2022-09-17T10:56:48.881Z,17.81
2022-09-17T10:59:41.349Z,17.84
2022-09-17T11:02:35.738Z,18.06
2022-09-17T11:05:20.472Z,18.13
2022-09-17T11:07:54.769Z,18.26
2022-09-17T11:10:31.123Z,18.26
2022-09-17T11:13:13.981Z,18.33
2022-09-17T11:15:57.727Z,18.48
2022-09-17T11:18:38.120Z,18.61
2022-09-17T11:21:34.725Z,18.86
2022-09-17T11:24:23.400Z,19.10
2022-09-17T11:27:00.415Z,19.15
2022-09-17T11:29:54.986Z,19.24
2022-09-17T11:32:50.892Z,19.21
2022-09-17T11:35:24.908Z,19.31
2022-09-17T11:37:59.951Z,19.26
2022-09-17T11:40:37.916Z,19.13
2022-09-17T11:43:16.688Z,19.14
2022-09-17T11:45:55.936Z,19.04
2022-09-17T11:48:30.716Z,19.10
2022-09-17T11:51:06.008Z,19.10
2022-09-17T11:53:39.361Z,19.10
2022-09-17T11:56:16.861Z,19.06
2022-09-17T11:58:49.336Z,18.96
2022-09-17T12:01:23.406Z,19.03
2022-09-17T12:03:56.618Z,18.94
2022-09-17T12:06:37.152Z,19.02
2022-09-17T12:09:13.665Z,19.02
2022-09-17T12:11:48.330Z,19.10
2022-09-17T12:14:23.510Z,18.88
2022-09-17T12:16:56.409Z,18.85
2022-09-17T12:19:29.861Z,18.74
2022-09-17T12:22:03.071Z,18.66
2022-09-17T12:24:32.373Z,18.54
2022-09-17T12:27:10.779Z,18.46
2022-09-17T12:30:02.277Z,18.44
2022-09-17T12:33:09.863Z,18.36
2022-09-17T12:36:07.032Z,18.45
2022-09-17T12:39:11.421Z,18.35
2022-09-17T12:41:47.569Z,18.38
2022-09-17T12:44:39.407Z,18.26
2022-09-17T12:47:30.908Z,18.27
2022-09-17T12:50:08.587Z,18.40
2022-09-17T12:52:54.083Z,18.31
2022-09-17T12:55:33.157Z,18.25
2022-09-17T12:58:09.357Z,18.27
2022-09-17T13:00:43.743Z,18.38
2022-09-17T13:03:20.911Z,18.26
2022-09-17T13:06:10.073Z,18.25
2022-09-17T13:08:58.051Z,18.31
2022-09-17T13:11:57.327Z,18.43
2022-09-17T13:14:34.141Z,18.31
2022-09-17T13:17:08.535Z,18.16
2022-09-17T13:19:42.856Z,18.07
2022-09-17T13:22:18.048Z,17.96
2022-09-17T13:24:48.197Z,18.01
2022-09-17T13:27:25.770Z,18.03
2022-09-17T13:30:03.305Z,17.92
2022-09-17T13:32:49.821Z,18.01
2022-09-17T13:35:49.926Z,17.97
2022-09-17T13:38:21.659Z,18.04
2022-09-17T13:40:51.912Z,18.13
2022-09-17T13:43:27.767Z,18.12
2022-09-17T13:46:15.580Z,18.30
2022-09-17T13:48:51.221Z,18.44
2022-09-17T13:51:49.502Z,18.41
2022-09-17T13:54:19.749Z,18.11
2022-09-17T13:56:51.646Z,18.02
2022-09-17T13:59:24.358Z,18.05
2022-09-17T14:02:04.122Z,18.01
2022-09-17T14:04:57.283Z,18.11
2022-09-17T14:07:49.101Z,18.14
2022-09-17T14:10:41.575Z,18.14
2022-09-17T14:13:29.973Z,18.12
2022-09-17T14:16:05.365Z,17.90
2022-09-17T14:18:58.860Z,17.86
2022-09-17T14:21:33.128Z,17.97
2022-09-17T14:24:03.870Z,17.93
2022-09-17T14:26:58.164Z,17.93
2022-09-17T14:29:43.762Z,17.89
2022-09-17T14:32:20.825Z,17.93
2022-09-17T14:34:49.355Z,17.90
2022-09-17T14:37:21.406Z,17.81
2022-09-17T14:39:50.373Z,17.75
2022-09-17T14:42:22.932Z,17.70
2022-09-17T14:44:59.320Z,17.55
2022-09-17T14:47:28.639Z,17.43
2022-09-17T14:49:56.616Z,17.35
2022-09-17T14:52:30.436Z,17.40
2022-09-17T14:55:12.183Z,17.45
2022-09-17T14:57:40.190Z,17.50
2022-09-17T15:00:18.532Z,17.52
2022-09-17T15:02:52.601Z,17.51
2022-09-17T15:05:24.176Z,17.36
2022-09-17T15:07:52.061Z,17.44
2022-09-17T15:10:22.006Z,17.45
2022-09-17T15:12:51.467Z,17.27
2022-09-17T15:15:23.316Z,17.17
2022-09-17T15:17:53.162Z,17.34
2022-09-17T15:20:23.316Z,17.44
2022-09-17T15:22:57.460Z,17.39
2022-09-17T15:25:30.197Z,17.42
2022-09-17T15:28:02.113Z,17.44
2022-09-17T15:30:30.091Z,17.33
2022-09-17T15:33:00.892Z,17.19
2022-09-17T15:35:30.652Z,17.25
2022-09-17T15:38:21.680Z,17.37
2022-09-17T15:40:48.704Z,17.48
2022-09-17T15:43:21.744Z,17.59
2022-09-17T15:45:49.640Z,17.65
2022-09-17T15:48:37.090Z,17.66
2022-09-17T15:51:07.135Z,17.61
2022-09-17T15:53:36.291Z,17.54
2022-09-17T15:56:08.309Z,17.67
2022-09-17T15:58:52.344Z,17.69
2022-09-17T16:01:55.790Z,17.67
2022-09-17T16:04:30.551Z,17.62
2022-09-17T16:07:28.037Z,17.55
2022-09-17T16:09:56.692Z,17.50
2022-09-17T16:12:26.856Z,17.41
2022-09-17T16:14:56.798Z,17.35
2022-09-17T16:17:43.253Z,17.31
2022-09-17T16:20:18.005Z,17.36
2022-09-17T16:22:47.991Z,17.38
2022-09-17T16:25:17.070Z,17.24
2022-09-17T16:27:50.465Z,17.15
2022-09-17T16:30:20.415Z,17.08
2022-09-17T16:32:49.024Z,17.04
2022-09-17T16:35:21.070Z,17.04
2022-09-17T16:37:53.377Z,17.09
2022-09-17T16:40:22.982Z,17.14
2022-09-17T16:42:51.008Z,17.14
2022-09-17T16:45:18.898Z,17.06
2022-09-17T16:47:47.061Z,16.96
2022-09-17T16:50:16.801Z,16.86
2022-09-17T16:52:46.615Z,16.95
2022-09-17T16:55:16.791Z,17.04
2022-09-17T16:57:45.215Z,17.03
2022-09-17T17:00:16.484Z,17.08
2022-09-17T17:02:44.819Z,17.02
2022-09-17T17:05:12.922Z,17.15
2022-09-17T17:07:40.845Z,17.18
2022-09-17T17:10:11.227Z,17.24
2022-09-17T17:12:39.534Z,17.29
2022-09-17T17:15:09.246Z,17.30
2022-09-17T17:17:37.996Z,17.26
2022-09-17T17:20:09.105Z,17.19
2022-09-17T17:22:38.080Z,17.27
2022-09-17T17:25:07.173Z,17.20
2022-09-17T17:27:36.608Z,17.18
2022-09-17T17:30:06.688Z,17.23
2022-09-17T17:32:35.180Z,17.17
2022-09-17T17:35:03.440Z,17.06
2022-09-17T17:37:31.400Z,16.97
2022-09-17T17:39:59.682Z,17.15
2022-09-17T17:42:27.689Z,17.23
2022-09-17T17:44:56.932Z,17.24
2022-09-17T17:47:24.794Z,17.27
2022-09-17T17:49:52.700Z,17.24
2022-09-17T17:52:20.533Z,17.18
2022-09-17T17:54:48.604Z,17.10
2022-09-17T17:57:16.488Z,16.92
2022-09-17T17:59:44.332Z,16.87
2022-09-17T18:02:13.727Z,16.84
2022-09-17T18:04:41.726Z,16.92
2022-09-17T18:07:09.579Z,16.84
2022-09-17T18:09:37.455Z,16.68
2022-09-17T18:12:05.669Z,16.66
2022-09-17T18:14:33.520Z,16.79
2022-09-17T18:17:01.397Z,16.85
2022-09-17T18:19:30.608Z,16.75
2022-09-17T18:21:58.467Z,16.71
2022-09-17T18:24:26.363Z,16.72
2022-09-17T18:26:54.243Z,16.70
2022-09-17T18:29:22.373Z,16.74
2022-09-17T18:31:50.274Z,16.67
2022-09-17T18:34:18.457Z,16.63
2022-09-17T18:36:51.180Z,16.66
2022-09-17T18:39:56.766Z,16.75
2022-09-17T18:42:09.145Z,16.85
2022-09-17T18:44:37.085Z,16.87
2022-09-17T18:47:05.001Z,16.80
2022-09-17T18:49:32.843Z,16.85
2022-09-17T18:52:02.235Z,16.79
2022-09-17T18:54:30.067Z,16.66
2022-09-17T18:56:57.985Z,16.58
2022-09-17T18:59:25.932Z,16.67
2022-09-17T19:01:53.803Z,16.79
2022-09-17T19:04:22.977Z,16.80
2022-09-17T19:06:50.891Z,16.76
2022-09-17T19:09:21.268Z,16.76
2022-09-17T19:11:49.332Z,16.75
2022-09-17T19:14:17.207Z,16.71
2022-09-17T19:16:45.072Z,16.76
2022-09-17T19:19:12.893Z,16.78
2022-09-17T19:21:40.794Z,16.77
2022-09-17T19:24:09.392Z,16.77
2022-09-17T19:26:39.644Z,16.72
2022-09-17T19:29:09.051Z,16.52
2022-09-17T19:31:37.007Z,16.48
2022-09-17T19:34:04.973Z,16.43
2022-09-17T19:36:32.918Z,16.35
2022-09-17T19:39:00.766Z,16.43
2022-09-17T19:41:28.785Z,16.32
2022-09-17T19:43:58.104Z,16.25
2022-09-17T19:46:27.639Z,16.40
2022-09-17T19:48:57.316Z,16.43
2022-09-17T19:51:28.305Z,16.22
2022-09-17T19:53:56.867Z,16.20
2022-09-17T19:56:26.420Z,16.25
2022-09-17T19:58:54.691Z,16.19
2022-09-17T20:01:24.048Z,16.32
2022-09-17T20:03:53.166Z,16.26
2022-09-17T20:06:23.345Z,16.12
2022-09-17T20:08:52.555Z,16.13
2022-09-17T20:11:22.214Z,16.13
2022-09-17T20:13:50.457Z,16.12
2022-09-17T20:16:20.610Z,16.07
2022-09-17T20:18:50.687Z,16.06
2022-09-17T20:21:20.816Z,16.07
2022-09-17T20:23:49.295Z,16.05
2022-09-17T20:26:17.905Z,16.08
2022-09-17T20:28:46.705Z,16.01
2022-09-17T20:31:16.279Z,16.00
2022-09-17T20:33:44.534Z,15.96
2022-09-17T20:36:15.199Z,15.95
2022-09-17T20:41:32.657Z,15.99
2022-09-17T20:44:00.586Z,16.08
2022-09-17T20:46:29.688Z,16.14
2022-09-17T20:48:58.173Z,16.10
2022-09-17T20:51:29.720Z,16.08
2022-09-17T20:53:58.169Z,16.15
2022-09-17T20:56:27.920Z,16.22
2022-09-17T20:59:03.444Z,16.11
2022-09-17T21:01:34.251Z,16.06
2022-09-17T21:04:04.404Z,16.03
2022-09-17T21:06:35.488Z,16.13
2022-09-17T21:09:04.326Z,16.03
2022-09-17T21:11:32.373Z,16.01
2022-09-17T21:14:01.569Z,16.03
2022-09-17T21:16:29.907Z,16.03
2022-09-17T21:18:59.332Z,16.16
2022-09-17T21:21:27.373Z,16.13
2022-09-17T21:24:01.074Z,16.07
2022-09-17T21:26:29.444Z,16.03
2022-09-17T21:28:58.278Z,15.85
2022-09-17T21:31:32.080Z,15.72
2022-09-17T21:34:02.526Z,15.85
2022-09-17T21:36:31.944Z,15.84
2022-09-17T21:39:03.317Z,15.85
2022-09-17T21:41:32.355Z,15.89
2022-09-17T21:44:00.425Z,15.92
2022-09-17T21:46:30.280Z,15.92
2022-09-17T21:49:02.234Z,15.89
2022-09-17T21:51:31.983Z,15.93
2022-09-17T21:54:02.761Z,15.76
2022-09-17T21:56:31.493Z,15.99
2022-09-17T21:59:01.901Z,16.01
2022-09-17T22:01:32.670Z,16.03
2022-09-17T22:04:02.099Z,16.07
2022-09-17T22:06:31.919Z,16.08
2022-09-17T22:09:02.907Z,16.03
2022-09-17T22:11:32.781Z,15.91
2022-09-17T22:14:05.124Z,15.94
2022-09-17T22:16:35.999Z,15.95
2022-09-17T22:19:05.580Z,15.98
2022-09-17T22:21:36.054Z,15.98
2022-09-17T22:24:06.688Z,15.88
2022-09-17T22:26:36.539Z,15.89
2022-09-17T22:29:06.677Z,15.85
2022-09-17T22:31:34.930Z,15.83
2022-09-17T22:34:03.185Z,15.85
2022-09-17T22:36:31.071Z,15.77
2022-09-17T22:38:59.685Z,15.82
2022-09-17T22:41:30.751Z,15.76
2022-09-17T22:44:00.738Z,15.68
2022-09-17T22:46:29.844Z,15.66
2022-09-17T22:48:58.583Z,15.72
2022-09-17T22:51:27.954Z,15.73
2022-09-17T22:53:55.891Z,15.66
2022-09-17T22:56:24.396Z,15.77
2022-09-17T22:58:53.807Z,15.82
2022-09-17T23:01:24.574Z,15.87
2022-09-17T23:03:53.456Z,15.76
2022-09-17T23:06:23.825Z,15.93
2022-09-17T23:08:52.183Z,15.99
2022-09-17T23:11:22.012Z,15.95
2022-09-17T23:13:50.973Z,16.02
2022-09-17T23:16:21.158Z,16.02
2022-09-17T23:18:49.057Z,16.10
2022-09-17T23:21:18.821Z,16.17
2022-09-17T23:23:49.220Z,16.19
2022-09-17T23:26:18.928Z,16.23
2022-09-17T23:28:47.696Z,16.21
2022-09-17T23:31:17.723Z,16.08
2022-09-17T23:33:47.721Z,16.11
2022-09-17T23:36:19.276Z,16.25
2022-09-17T23:38:48.458Z,16.24
2022-09-17T23:41:18.334Z,16.28
2022-09-17T23:43:48.287Z,16.31
2022-09-17T23:46:16.816Z,16.19
2022-09-17T23:48:46.367Z,16.32
2022-09-17T23:51:15.013Z,16.40
2022-09-17T23:53:42.969Z,16.46
2022-09-17T23:56:13.247Z,16.47
2022-09-17T23:58:41.547Z,16.13
